createdAt,value
2022-10-09T00:01:27.568Z,99.90
2022-10-09T00:03:56.872Z,99.90
2022-10-09T00:06:30.885Z,99.90
2022-10-09T00:09:02.145Z,99.90
2022-10-09T00:11:33.159Z,99.90
2022-10-09T00:14:00.994Z,99.90
2022-10-09T00:16:29.265Z,99.90
2022-10-09T00:18:57.277Z,99.90
2022-10-09T00:21:33.540Z,99.90
2022-10-09T00:24:03.590Z,99.90
2022-10-09T00:26:31.510Z,99.90
2022-10-09T00:28:58.910Z,99.90
2022-10-09T00:31:26.256Z,99.90
2022-10-09T00:33:53.256Z,99.90
2022-10-09T00:36:24.363Z,99.90
2022-10-09T00:38:53.258Z,99.90
2022-10-09T00:41:24.416Z,1.00
2022-10-09T00:44:01.510Z,1.00
2022-10-09T00:46:45.968Z,1.00
2022-10-09T00:49:29.159Z,1.00
2022-10-09T00:52:01.974Z,1.00
2022-10-09T00:54:33.894Z,1.00
2022-10-09T00:57:01.197Z,1.00
2022-10-09T00:59:28.625Z,1.00
2022-10-09T01:01:55.729Z,1.00
2022-10-09T01:04:23.309Z,1.00
2022-10-09T01:07:38.509Z,1.00
2022-10-09T01:10:44.510Z,1.00
2022-10-09T01:13:34.662Z,1.00
2022-10-09T01:16:24.085Z,1.00
2022-10-09T01:19:12.658Z,99.90
2022-10-09T01:22:03.593Z,1.00
2022-10-09T01:24:45.200Z,1.00
2022-10-09T01:27:25.660Z,1.00
2022-10-09T01:30:12.216Z,1.00
2022-10-09T01:32:44.077Z,1.00
2022-10-09T01:35:14.449Z,99.90
2022-10-09T01:37:45.800Z,1.00
2022-10-09T01:40:16.312Z,99.90
2022-10-09T01:42:43.873Z,1.00
2022-10-09T01:45:11.422Z,1.00
2022-10-09T01:47:38.626Z,1.00
2022-10-09T01:50:40.575Z,1.00
2022-10-09T01:53:17.237Z,1.00
2022-10-09T01:56:06.109Z,1.00
2022-10-09T01:58:55.256Z,1.00
2022-10-09T02:01:29.786Z,1.00
2022-10-09T02:03:59.755Z,99.90
2022-10-09T02:06:28.774Z,1.00
2022-10-09T02:08:56.259Z,99.90
2022-10-09T02:11:29.274Z,1.00
2022-10-09T02:13:56.726Z,1.00
2022-10-09T02:16:49.566Z,99.90
2022-10-09T02:19:44.386Z,99.90
2022-10-09T02:22:29.098Z,1.00
2022-10-09T02:24:58.749Z,1.00
2022-10-09T02:27:27.442Z,99.90
2022-10-09T02:29:55.094Z,1.00
2022-10-09T02:32:22.852Z,1.00
2022-10-09T02:34:49.965Z,99.90
2022-10-09T02:37:17.134Z,1.00
2022-10-09T02:39:44.327Z,1.00
2022-10-09T02:42:12.190Z,1.00
2022-10-09T02:44:39.295Z,1.00
2022-10-09T02:47:06.361Z,1.00
2022-10-09T02:49:33.396Z,1.00
2022-10-09T02:52:00.418Z,1.00
2022-10-09T02:54:27.477Z,1.00
2022-10-09T02:56:54.514Z,1.00
2022-10-09T02:59:21.530Z,1.00
2022-10-09T03:01:48.759Z,1.00
2022-10-09T03:04:16.025Z,1.00
2022-10-09T03:06:42.973Z,1.00
2022-10-09T03:09:10.174Z,1.00
2022-10-09T03:11:37.239Z,1.00
2022-10-09T03:14:04.224Z,1.00
2022-10-09T03:16:31.254Z,1.00
2022-10-09T03:18:58.592Z,1.00
2022-10-09T03:21:27.918Z,1.00
2022-10-09T03:23:55.842Z,1.00
2022-10-09T03:26:27.976Z,1.00
2022-10-09T03:28:55.911Z,1.00
2022-10-09T03:31:50.539Z,1.00
2022-10-09T03:34:13.757Z,1.00
2022-10-09T03:36:42.312Z,1.00
2022-10-09T03:39:09.830Z,1.00
2022-10-09T03:41:36.829Z,1.00
2022-10-09T03:44:03.989Z,1.00
2022-10-09T03:46:31.058Z,1.00
2022-10-09T03:48:58.324Z,1.00
2022-10-09T03:51:25.336Z,1.00
2022-10-09T03:53:52.350Z,1.00
2022-10-09T03:56:19.306Z,1.00
2022-10-09T03:58:46.348Z,99.90
2022-10-09T04:01:13.358Z,1.00
2022-10-09T04:03:40.371Z,1.00
2022-10-09T04:06:07.444Z,1.00
2022-10-09T04:08:35.891Z,1.00
2022-10-09T04:11:03.569Z,1.00
2022-10-09T04:13:30.680Z,1.00
2022-10-09T04:15:57.828Z,1.00
2022-10-09T04:18:25.494Z,1.00
2022-10-09T04:20:55.094Z,1.00
2022-10-09T04:23:25.582Z,1.00
2022-10-09T04:25:58.493Z,1.00
2022-10-09T04:28:30.927Z,99.90
2022-10-09T04:30:58.964Z,1.00
2022-10-09T04:33:27.300Z,1.00
2022-10-09T04:35:56.017Z,1.00
2022-10-09T04:38:24.870Z,1.00
2022-10-09T04:41:07.152Z,1.00
2022-10-09T04:43:35.631Z,1.00
2022-10-09T04:46:07.886Z,1.00
2022-10-09T04:48:44.279Z,1.00
2022-10-09T04:51:12.494Z,1.00
2022-10-09T04:53:39.964Z,1.00
2022-10-09T04:56:13.759Z,1.00
2022-10-09T04:58:41.808Z,1.00
2022-10-09T05:01:25.162Z,1.00
2022-10-09T05:03:53.171Z,1.00
2022-10-09T05:06:22.504Z,1.00
2022-10-09T05:08:49.735Z,1.00
2022-10-09T05:11:23.735Z,1.00
2022-10-09T05:13:54.549Z,1.00
2022-10-09T05:16:26.516Z,1.00
2022-10-09T05:19:02.715Z,1.00
2022-10-09T05:21:31.082Z,1.00
2022-10-09T05:23:58.356Z,1.00
2022-10-09T05:26:27.041Z,1.00
2022-10-09T05:28:54.336Z,1.00
2022-10-09T05:31:27.856Z,1.00
2022-10-09T05:33:58.319Z,1.00
2022-10-09T05:36:25.302Z,1.00
2022-10-09T05:38:52.307Z,1.00
2022-10-09T05:41:20.103Z,1.00
2022-10-09T05:43:49.296Z,1.00
2022-10-09T05:46:24.841Z,1.00
2022-10-09T05:48:52.967Z,1.00
2022-10-09T05:51:25.723Z,1.00
2022-10-09T05:53:53.548Z,1.00
2022-10-09T05:56:26.115Z,1.00
2022-10-09T05:59:17.769Z,1.00
2022-10-09T06:01:48.786Z,1.00
2022-10-09T06:04:20.827Z,1.00
2022-10-09T06:06:48.777Z,1.00
2022-10-09T06:09:23.105Z,99.90
2022-10-09T06:11:51.964Z,16.60
2022-10-09T06:14:22.096Z,1.00
2022-10-09T06:16:50.331Z,1.00
2022-10-09T06:19:19.669Z,1.00
2022-10-09T06:21:47.766Z,1.00
2022-10-09T06:24:24.474Z,1.00
2022-10-09T06:26:55.136Z,1.00
2022-10-09T06:29:22.290Z,1.00
2022-10-09T06:31:49.465Z,1.00
2022-10-09T06:34:16.713Z,1.00
2022-10-09T06:36:43.656Z,1.00
2022-10-09T06:39:11.185Z,1.00
2022-10-09T06:41:38.264Z,1.00
2022-10-09T06:44:10.818Z,1.00
2022-10-09T06:46:42.360Z,1.00
2022-10-09T06:49:11.513Z,1.00
2022-10-09T06:51:38.924Z,1.00
2022-10-09T06:54:15.193Z,1.00
2022-10-09T06:56:42.372Z,1.00
2022-10-09T06:59:11.291Z,99.90
2022-10-09T07:01:38.429Z,1.00
2022-10-09T07:04:11.039Z,1.00
2022-10-09T07:06:42.047Z,99.90
2022-10-09T07:09:13.289Z,19.20
2022-10-09T07:11:44.323Z,22.90
2022-10-09T07:14:13.218Z,1.00
2022-10-09T07:16:43.704Z,99.90
2022-10-09T07:19:12.183Z,99.90
2022-10-09T07:21:43.632Z,1.00
2022-10-09T07:24:12.207Z,1.00
2022-10-09T07:26:44.041Z,1.00
2022-10-09T07:29:14.776Z,1.00
2022-10-09T07:31:42.654Z,1.00
2022-10-09T07:34:09.865Z,1.00
2022-10-09T07:36:37.010Z,1.00
2022-10-09T07:39:05.216Z,1.00
2022-10-09T07:41:32.934Z,1.00
2022-10-09T07:43:59.984Z,1.00
2022-10-09T07:46:33.462Z,1.00
2022-10-09T07:49:01.866Z,1.00
2022-10-09T07:51:30.319Z,1.00
2022-10-09T07:53:58.622Z,1.00
2022-10-09T07:56:29.347Z,1.00
2022-10-09T07:59:02.923Z,1.00
2022-10-09T08:01:32.432Z,1.00
2022-10-09T08:04:00.964Z,99.90
2022-10-09T08:06:28.895Z,99.90
2022-10-09T08:08:59.733Z,99.90
2022-10-09T08:11:29.139Z,99.90
2022-10-09T08:13:56.618Z,99.90
2022-10-09T08:16:27.076Z,99.90
2022-10-09T08:19:00.054Z,99.90
2022-10-09T08:21:28.598Z,1.00
2022-10-09T08:23:58.401Z,1.00
2022-10-09T08:26:29.203Z,18.70
2022-10-09T08:29:02.773Z,1.00
2022-10-09T08:31:31.783Z,1.00
2022-10-09T08:34:01.785Z,1.00
2022-10-09T08:36:29.812Z,1.00
2022-10-09T08:38:56.892Z,1.00
2022-10-09T08:41:32.913Z,1.00
2022-10-09T08:44:17.104Z,1.00
2022-10-09T08:47:05.301Z,1.00
2022-10-09T08:49:44.418Z,1.00
2022-10-09T08:52:36.324Z,1.00
2022-10-09T08:55:36.116Z,1.00
2022-10-09T08:58:06.445Z,99.90
2022-10-09T09:00:55.110Z,99.90
2022-10-09T09:03:42.900Z,99.90
2022-10-09T09:06:39.075Z,99.90
2022-10-09T09:09:34.824Z,99.90
2022-10-09T09:12:55.321Z,1.00
2022-10-09T09:15:25.504Z,99.90
2022-10-09T09:18:33.214Z,99.90
2022-10-09T09:21:28.402Z,99.90
2022-10-09T09:23:57.549Z,99.90
2022-10-09T09:26:24.866Z,99.90
2022-10-09T09:28:59.778Z,99.90
2022-10-09T09:31:35.704Z,99.90
2022-10-09T09:34:25.999Z,98.60
2022-10-09T09:36:58.434Z,99.90
2022-10-09T09:40:31.321Z,99.90
2022-10-09T09:42:20.700Z,99.90
2022-10-09T09:45:03.967Z,1.00
2022-10-09T09:47:40.686Z,57.60
2022-10-09T09:50:18.473Z,32.70
2022-10-09T09:52:56.475Z,99.90
2022-10-09T09:55:27.651Z,1.00
2022-10-09T09:58:06.411Z,1.00
2022-10-09T10:00:35.941Z,1.00
2022-10-09T10:03:09.412Z,1.00
2022-10-09T10:05:38.109Z,1.00
2022-10-09T10:08:35.084Z,1.00
2022-10-09T10:11:07.021Z,1.00
2022-10-09T10:13:56.712Z,1.00
2022-10-09T10:16:29.263Z,1.00
2022-10-09T10:18:58.231Z,1.00
2022-10-09T10:21:25.248Z,1.00
2022-10-09T10:24:05.361Z,1.00
2022-10-09T10:26:51.023Z,1.00
2022-10-09T10:29:35.474Z,1.00
2022-10-09T10:32:38.787Z,1.00
2022-10-09T10:35:24.884Z,1.00
2022-10-09T10:38:14.796Z,1.00
2022-10-09T10:40:56.843Z,1.00
2022-10-09T10:43:49.254Z,1.00
2022-10-09T10:46:42.197Z,1.00
2022-10-09T10:49:11.828Z,1.00
2022-10-09T10:52:04.344Z,99.90
2022-10-09T10:54:48.467Z,1.00
2022-10-09T10:57:26.955Z,1.00
2022-10-09T11:00:08.623Z,1.00
2022-10-09T11:02:59.828Z,1.00
2022-10-09T11:05:44.079Z,1.00
2022-10-09T11:08:55.507Z,1.00
2022-10-09T11:11:40.107Z,1.00
2022-10-09T11:14:55.041Z,1.00
2022-10-09T11:17:59.205Z,1.00
2022-10-09T11:20:47.433Z,1.00
2022-10-09T11:23:32.961Z,1.00
2022-10-09T11:26:33.250Z,1.00
2022-10-09T11:29:18.501Z,1.00
2022-10-09T11:32:01.946Z,1.00
2022-10-09T11:34:38.089Z,1.00
2022-10-09T11:37:16.255Z,1.00
2022-10-09T11:39:43.834Z,1.00
2022-10-09T11:42:14.947Z,1.00
2022-10-09T11:45:07.789Z,1.00
2022-10-09T11:47:48.678Z,1.00
2022-10-09T11:50:42.601Z,1.00
2022-10-09T11:53:14.803Z,1.00
2022-10-09T11:55:43.363Z,1.00
2022-10-09T11:58:30.834Z,1.00
2022-10-09T12:01:13.109Z,1.00
2022-10-09T12:03:40.819Z,1.00
2022-10-09T12:06:17.710Z,1.00
2022-10-09T12:09:08.314Z,1.00
2022-10-09T12:11:35.589Z,1.00
2022-10-09T12:14:07.133Z,1.00
2022-10-09T12:16:45.041Z,1.00
2022-10-09T12:19:19.169Z,1.00
2022-10-09T12:22:17.170Z,1.00
2022-10-09T12:24:54.886Z,1.00
2022-10-09T12:27:33.619Z,1.00
2022-10-09T12:30:19.090Z,1.00
2022-10-09T12:33:19.635Z,1.00
2022-10-09T12:36:11.052Z,1.00
2022-10-09T12:38:41.993Z,1.00
2022-10-09T12:41:31.899Z,1.00
2022-10-09T12:44:00.864Z,1.00
2022-10-09T12:46:39.440Z,1.00
2022-10-09T12:49:20.387Z,1.00
2022-10-09T12:51:56.799Z,1.00
2022-10-09T12:54:25.587Z,1.00
2022-10-09T12:56:55.215Z,1.00
2022-10-09T12:59:24.879Z,1.00
2022-10-09T13:01:58.618Z,1.00
2022-10-09T13:04:33.137Z,1.00
2022-10-09T13:07:06.777Z,1.00
2022-10-09T13:09:40.715Z,1.00
2022-10-09T13:12:14.900Z,1.00
2022-10-09T13:14:46.304Z,1.00
2022-10-09T13:17:35.386Z,1.00
2022-10-09T13:20:17.002Z,1.00
2022-10-09T13:22:56.236Z,1.00
2022-10-09T13:25:48.984Z,1.00
2022-10-09T13:28:20.490Z,1.00
2022-10-09T13:30:48.112Z,1.00
2022-10-09T13:33:16.238Z,1.00
2022-10-09T13:35:43.510Z,1.00
2022-10-09T13:38:19.966Z,1.00
2022-10-09T13:40:47.788Z,1.00
2022-10-09T13:43:26.611Z,1.00
2022-10-09T13:45:54.481Z,1.00
2022-10-09T13:48:21.599Z,1.00
2022-10-09T13:50:48.733Z,1.00
2022-10-09T13:53:15.736Z,1.00
2022-10-09T13:55:42.937Z,1.00
2022-10-09T13:58:10.082Z,1.00
2022-10-09T14:00:37.579Z,1.00
2022-10-09T14:03:05.321Z,1.00
2022-10-09T14:05:32.343Z,1.00
2022-10-09T14:07:59.912Z,1.00
2022-10-09T14:10:27.150Z,1.00
2022-10-09T14:12:54.199Z,1.00
2022-10-09T14:15:21.583Z,1.00
2022-10-09T14:17:48.991Z,1.00
2022-10-09T14:20:16.262Z,1.00
2022-10-09T14:22:43.305Z,1.00
2022-10-09T14:25:10.578Z,1.00
2022-10-09T14:27:39.393Z,1.00
2022-10-09T14:30:09.602Z,1.00
2022-10-09T14:32:36.598Z,1.00
2022-10-09T14:35:03.697Z,1.00
2022-10-09T14:37:41.083Z,1.00
2022-10-09T14:40:10.896Z,1.00
2022-10-09T14:42:38.875Z,1.00
2022-10-09T14:45:06.981Z,1.00
2022-10-09T14:47:34.201Z,1.00
2022-10-09T14:50:01.235Z,1.00
2022-10-09T14:52:28.278Z,1.00
2022-10-09T14:54:55.254Z,1.00
2022-10-09T14:57:22.198Z,1.00
2022-10-09T14:59:49.258Z,1.00
2022-10-09T15:02:17.813Z,1.00
2022-10-09T15:04:44.840Z,1.00
2022-10-09T15:07:11.932Z,1.00
2022-10-09T15:09:38.885Z,1.00
2022-10-09T15:12:05.968Z,1.00
2022-10-09T15:14:33.073Z,1.00
2022-10-09T15:17:00.100Z,1.00
2022-10-09T15:19:27.170Z,1.00
2022-10-09T15:21:54.118Z,1.00
2022-10-09T15:24:21.405Z,1.00
2022-10-09T15:26:48.598Z,1.00
2022-10-09T15:29:16.762Z,1.00
2022-10-09T15:31:44.180Z,1.00
2022-10-09T15:34:18.525Z,1.00
2022-10-09T15:36:48.537Z,1.00
2022-10-09T15:39:16.424Z,1.00
2022-10-09T15:41:44.259Z,1.00
2022-10-09T15:44:20.294Z,1.00
2022-10-09T15:46:48.886Z,1.00
2022-10-09T15:49:16.162Z,1.00
2022-10-09T15:51:44.344Z,1.00
2022-10-09T15:54:16.198Z,1.00
2022-10-09T15:56:45.908Z,1.00
2022-10-09T15:59:19.058Z,1.00
2022-10-09T16:01:49.064Z,1.00
2022-10-09T16:04:16.223Z,1.00
2022-10-09T16:06:43.236Z,1.00
2022-10-09T16:09:10.383Z,1.00
2022-10-09T16:11:37.503Z,1.00
2022-10-09T16:14:05.101Z,1.00
2022-10-09T16:16:32.147Z,1.00
2022-10-09T16:19:00.801Z,1.00
2022-10-09T16:21:29.072Z,1.00
2022-10-09T16:23:59.416Z,1.00
2022-10-09T16:26:29.510Z,1.00
2022-10-09T16:28:59.081Z,1.00
2022-10-09T16:31:30.707Z,1.00
2022-10-09T16:33:58.288Z,1.00
2022-10-09T16:36:25.371Z,1.00
2022-10-09T16:38:52.680Z,1.00
2022-10-09T16:41:22.578Z,1.00
2022-10-09T16:43:55.149Z,1.00
2022-10-09T16:49:02.980Z,1.00
2022-10-09T16:51:36.351Z,1.00
2022-10-09T16:54:06.155Z,1.00
2022-10-09T16:56:37.682Z,1.00
2022-10-09T16:59:10.272Z,1.00
2022-10-09T17:01:42.418Z,1.00
2022-10-09T17:04:10.966Z,1.00
2022-10-09T17:06:41.453Z,1.00
2022-10-09T17:09:14.020Z,1.00
2022-10-09T17:11:41.660Z,1.00
2022-10-09T17:14:08.657Z,1.00
2022-10-09T17:16:40.641Z,1.00
2022-10-09T17:19:08.092Z,1.00
2022-10-09T17:21:35.624Z,1.00
2022-10-09T17:24:04.365Z,1.00
2022-10-09T17:26:31.434Z,1.00
2022-10-09T17:29:00.087Z,1.00
2022-10-09T17:31:29.064Z,7.90
2022-10-09T17:34:00.435Z,1.00
2022-10-09T17:36:31.415Z,1.00
2022-10-09T17:38:59.226Z,1.00
2022-10-09T17:41:27.418Z,1.00
2022-10-09T17:43:56.611Z,1.00
2022-10-09T17:46:25.834Z,1.00
2022-10-09T17:49:00.093Z,1.00
2022-10-09T17:51:34.524Z,1.00
2022-10-09T17:54:09.554Z,1.00
2022-10-09T17:56:39.525Z,1.00
2022-10-09T17:59:07.311Z,1.00
2022-10-09T18:01:35.185Z,1.00
2022-10-09T18:04:02.894Z,17.20
2022-10-09T18:06:34.098Z,1.00
2022-10-09T18:09:02.120Z,1.00
2022-10-09T18:11:30.065Z,1.00
2022-10-09T18:13:57.749Z,1.00
2022-10-09T18:16:35.910Z,1.00
2022-10-09T18:19:08.695Z,1.00
2022-10-09T18:21:35.826Z,1.00
2022-10-09T18:24:03.263Z,1.00
2022-10-09T18:26:30.422Z,1.00
2022-10-09T18:28:59.373Z,1.00
2022-10-09T18:31:28.099Z,1.00
2022-10-09T18:33:55.145Z,1.00
2022-10-09T18:36:24.855Z,1.00
2022-10-09T18:38:55.452Z,1.50
2022-10-09T18:41:24.049Z,13.50
2022-10-09T18:43:52.286Z,1.00
2022-10-09T18:46:24.625Z,31.50
2022-10-09T18:48:54.229Z,4.80
2022-10-09T18:51:26.010Z,28.40
2022-10-09T18:54:00.007Z,1.00
2022-10-09T18:56:30.739Z,20.70
2022-10-09T18:59:00.444Z,1.00
2022-10-09T19:01:27.538Z,1.00
2022-10-09T19:03:54.562Z,1.00
2022-10-09T19:14:36.519Z,1.00
2022-10-09T19:17:03.585Z,1.00
2022-10-09T19:19:30.702Z,1.00
2022-10-09T19:21:58.668Z,38.80
2022-10-09T19:24:25.941Z,7.90
2022-10-09T19:26:52.911Z,1.00
2022-10-09T19:29:20.009Z,50.90
2022-10-09T19:31:47.079Z,44.70
2022-10-09T19:34:14.074Z,82.20
2022-10-09T19:36:41.379Z,47.00
2022-10-09T19:39:08.890Z,1.00
2022-10-09T19:41:37.837Z,31.60
2022-10-09T19:44:05.085Z,16.40
2022-10-09T19:46:32.054Z,24.30
2022-10-09T19:48:59.252Z,1.00
2022-10-09T19:51:27.567Z,45.60
2022-10-09T19:53:54.993Z,17.30
2022-10-09T19:56:26.204Z,5.90
2022-10-09T19:58:54.855Z,1.00
2022-10-09T20:01:27.018Z,16.60
2022-10-09T20:04:00.864Z,1.00
2022-10-09T20:06:28.534Z,1.00
2022-10-09T20:08:56.297Z,1.00
2022-10-09T20:11:25.547Z,1.00
2022-10-09T20:13:55.987Z,34.70
2022-10-09T20:16:25.428Z,19.60
2022-10-09T20:18:53.973Z,20.80
2022-10-09T20:21:21.010Z,42.60
2022-10-09T20:23:48.573Z,1.00
2022-10-09T20:26:18.856Z,24.80
2022-10-09T20:28:48.101Z,67.70
2022-10-09T20:31:19.867Z,38.30
2022-10-09T20:33:49.266Z,38.30
2022-10-09T20:36:27.680Z,70.00
2022-10-09T20:38:57.780Z,62.00
2022-10-09T20:41:26.105Z,62.60
2022-10-09T20:43:55.179Z,32.10
2022-10-09T20:46:24.291Z,51.80
2022-10-09T20:48:52.563Z,77.30
2022-10-09T20:51:20.470Z,76.00
2022-10-09T20:53:56.262Z,97.60
2022-10-09T20:56:25.921Z,47.20
2022-10-09T20:58:53.829Z,62.00
2022-10-09T21:01:21.263Z,99.90
2022-10-09T21:03:48.389Z,79.80
2022-10-09T21:06:19.080Z,41.10
2022-10-09T21:08:46.611Z,78.40
2022-10-09T21:11:17.179Z,62.30
2022-10-09T21:13:45.465Z,76.60
2022-10-09T21:16:17.982Z,72.30
2022-10-09T21:18:44.963Z,99.90
2022-10-09T21:21:15.836Z,99.90
2022-10-09T21:23:44.309Z,99.90
2022-10-09T21:26:17.493Z,99.90
2022-10-09T21:28:45.724Z,99.90
2022-10-09T21:31:22.713Z,99.90
2022-10-09T21:33:50.419Z,99.90
2022-10-09T21:36:51.148Z,98.60
2022-10-09T21:39:26.741Z,99.90
2022-10-09T21:41:53.653Z,1.00
2022-10-09T21:44:20.879Z,45.20
2022-10-09T21:46:47.960Z,95.50
2022-10-09T21:49:27.448Z,99.90
2022-10-09T21:51:55.191Z,99.90
2022-10-09T21:54:22.527Z,99.90
2022-10-09T21:56:49.684Z,99.90
2022-10-09T21:59:16.667Z,99.90
2022-10-09T22:01:43.756Z,99.90
2022-10-09T22:04:10.871Z,99.90
2022-10-09T22:06:37.908Z,99.90
2022-10-09T22:09:04.828Z,99.90
2022-10-09T22:11:31.802Z,99.90
2022-10-09T22:13:58.805Z,95.10
2022-10-09T22:16:25.876Z,87.90
2022-10-09T22:18:53.017Z,99.90
2022-10-09T22:21:20.129Z,99.90
2022-10-09T22:23:47.247Z,99.90
2022-10-09T22:26:18.997Z,99.90
2022-10-09T22:28:47.463Z,99.90
2022-10-09T22:31:20.278Z,99.90
2022-10-09T22:34:05.809Z,99.90
2022-10-09T22:36:33.918Z,99.90
2022-10-09T22:39:04.372Z,99.90
2022-10-09T22:41:34.175Z,99.90
2022-10-09T22:44:02.207Z,99.90
2022-10-09T22:46:33.882Z,99.90
2022-10-09T22:49:01.576Z,99.90
2022-10-09T22:51:29.959Z,99.90
2022-10-09T22:53:59.134Z,99.90
2022-10-09T22:56:33.477Z,99.90
2022-10-09T22:59:00.989Z,99.90
2022-10-09T23:01:40.400Z,99.90
2022-10-09T23:04:12.229Z,99.90
2022-10-09T23:06:40.215Z,99.90
2022-10-09T23:09:10.770Z,99.90
2022-10-09T23:11:37.821Z,99.90
2022-10-09T23:14:05.589Z,99.90
2022-10-09T23:16:33.432Z,99.90
2022-10-09T23:19:06.515Z,99.90
2022-10-09T23:21:35.015Z,99.90
2022-10-09T23:24:02.645Z,99.90
2022-10-09T23:26:31.891Z,99.90
2022-10-09T23:29:06.372Z,99.90
2022-10-09T23:31:34.591Z,99.90
2022-10-09T23:34:03.612Z,99.90
2022-10-09T23:36:31.231Z,99.90
2022-10-09T23:39:00.905Z,99.90
2022-10-09T23:41:29.018Z,99.90
2022-10-09T23:43:56.452Z,99.90
2022-10-09T23:46:27.453Z,99.90
2022-10-09T23:48:55.309Z,99.90
2022-10-09T23:51:24.532Z,99.90
2022-10-09T23:53:52.253Z,99.90
2022-10-09T23:56:31.624Z,99.90
2022-10-09T23:59:00.964Z,99.90
